createdAt,value
2018-01-31T01:52:21.110Z,0
2018-01-31T01:53:24.656Z,0
2018-01-31T01:54:27.133Z,0
2018-01-31T01:55:29.621Z,0
2018-01-31T01:56:32.117Z,0
2018-01-31T01:57:34.610Z,0
2018-01-31T01:58:37.085Z,0
2018-01-31T01:59:39.577Z,0
2018-01-31T02:00:42.065Z,0
2018-01-31T02:01:44.567Z,0
2018-01-31T02:02:47.100Z,0
2018-01-31T02:03:49.543Z,0
2018-01-31T02:04:52.023Z,0
2018-01-31T02:05:54.816Z,0
2018-01-31T02:06:57.300Z,0
2018-01-31T02:07:59.780Z,0
2018-01-31T02:09:02.272Z,0
2018-01-31T02:10:04.762Z,0
2018-01-31T02:11:07.243Z,0
2018-01-31T02:12:09.738Z,0
2018-01-31T02:13:12.221Z,0
2018-01-31T02:14:14.713Z,0
2018-01-31T02:15:17.202Z,0
2018-01-31T02:16:19.979Z,0
2018-01-31T02:17:22.464Z,0
2018-01-31T02:18:24.960Z,0
2018-01-31T02:19:27.443Z,0
2018-01-31T02:20:29.928Z,0
2018-01-31T02:21:32.413Z,0
2018-01-31T02:22:34.904Z,0
2018-01-31T02:23:37.388Z,0
2018-01-31T02:24:40.217Z,0
2018-01-31T02:25:42.708Z,0
2018-01-31T02:26:45.194Z,0
2018-01-31T02:27:47.685Z,0
2018-01-31T02:28:50.178Z,0
2018-01-31T02:29:52.651Z,0
2018-01-31T02:30:55.444Z,0
2018-01-31T02:31:57.922Z,0
2018-01-31T02:33:00.414Z,0
2018-01-31T02:34:02.907Z,0
2018-01-31T02:35:05.686Z,0
2018-01-31T02:36:08.458Z,0
2018-01-31T02:37:11.249Z,0
2018-01-31T02:38:13.741Z,0
2018-01-31T02:39:16.510Z,0
2018-01-31T02:40:19.000Z,0
2018-01-31T02:41:21.492Z,0
2018-01-31T02:42:23.978Z,0
2018-01-31T02:43:27.094Z,0
2018-01-31T02:44:29.579Z,0
2018-01-31T02:45:32.067Z,0
2018-01-31T02:46:34.564Z,0
2018-01-31T02:47:37.363Z,0
2018-01-31T02:48:40.144Z,0
2018-01-31T02:49:42.915Z,0
2018-01-31T02:50:45.403Z,0
2018-01-31T02:51:47.900Z,0
2018-01-31T02:52:50.394Z,0
2018-01-31T02:53:52.876Z,0
2018-01-31T02:54:55.655Z,0
2018-01-31T02:55:58.166Z,0
2018-01-31T02:57:00.653Z,0
2018-01-31T02:58:03.135Z,0
2018-01-31T02:59:05.625Z,0
2018-01-31T03:00:08.154Z,0
2018-01-31T03:01:10.680Z,0
2018-01-31T03:02:13.481Z,0
2018-01-31T03:03:16.534Z,0
2018-01-31T03:04:19.021Z,0
2018-01-31T03:05:21.533Z,0
2018-01-31T03:06:24.021Z,0
2018-01-31T03:07:26.795Z,0
2018-01-31T03:08:29.287Z,0
2018-01-31T03:09:31.779Z,0
2018-01-31T03:10:34.262Z,0
2018-01-31T03:11:36.756Z,0
2018-01-31T03:12:39.240Z,0
2018-01-31T03:13:41.737Z,0
2018-01-31T03:14:44.214Z,0
2018-01-31T03:15:46.707Z,0
2018-01-31T03:16:49.194Z,0
2018-01-31T03:17:51.684Z,0
2018-01-31T03:18:54.175Z,0
2018-01-31T03:19:56.657Z,0
2018-01-31T03:20:59.142Z,0
2018-01-31T03:22:01.646Z,0
2018-01-31T03:23:04.139Z,0
2018-01-31T03:24:06.628Z,0
2018-01-31T03:25:09.110Z,0
2018-01-31T03:26:11.604Z,0
2018-01-31T03:27:14.096Z,0
2018-01-31T03:28:16.584Z,0
2018-01-31T03:29:19.067Z,0
2018-01-31T03:30:21.561Z,0
2018-01-31T03:31:24.048Z,0
2018-01-31T03:32:26.538Z,0
2018-01-31T03:33:29.022Z,0
2018-01-31T03:34:31.518Z,0
2018-01-31T03:35:34.283Z,0
2018-01-31T03:36:37.077Z,0
2018-01-31T03:37:39.568Z,0
2018-01-31T03:38:42.044Z,0
2018-01-31T03:39:44.535Z,0
2018-01-31T03:40:47.026Z,0
2018-01-31T03:41:50.088Z,0
2018-01-31T03:42:52.866Z,0
2018-01-31T03:43:55.354Z,0
2018-01-31T03:44:57.833Z,0
2018-01-31T03:46:00.345Z,0
2018-01-31T03:47:02.829Z,0
2018-01-31T03:48:05.318Z,0
2018-01-31T03:49:07.803Z,0
2018-01-31T03:50:10.295Z,0
2018-01-31T03:51:12.780Z,0
2018-01-31T03:52:15.280Z,0
2018-01-31T03:53:17.756Z,0
2018-01-31T03:54:20.252Z,0
2018-01-31T03:55:22.737Z,0
2018-01-31T03:56:25.229Z,0
2018-01-31T03:57:27.727Z,0
2018-01-31T03:58:30.205Z,0
2018-01-31T03:59:32.690Z,0
2018-01-31T04:00:35.190Z,0
2018-01-31T04:01:37.681Z,0
2018-01-31T04:02:40.473Z,0
2018-01-31T04:03:42.960Z,0
2018-01-31T04:04:45.733Z,0
2018-01-31T04:05:48.217Z,0
2018-01-31T04:06:50.712Z,0
2018-01-31T04:07:53.198Z,0
2018-01-31T04:08:55.686Z,0
2018-01-31T04:09:58.169Z,0
2018-01-31T04:11:00.653Z,0
2018-01-31T04:12:03.159Z,0
2018-01-31T04:13:05.935Z,0
2018-01-31T04:14:08.423Z,0
2018-01-31T04:15:10.918Z,0
2018-01-31T04:16:13.402Z,0
2018-01-31T04:17:15.907Z,0
2018-01-31T04:18:18.397Z,0
2018-01-31T04:19:20.867Z,0
2018-01-31T04:20:23.363Z,0
2018-01-31T04:21:25.855Z,0
2018-01-31T04:22:28.340Z,0
2018-01-31T04:23:30.837Z,0
2018-01-31T04:24:33.308Z,0
2018-01-31T04:25:35.801Z,0
2018-01-31T04:26:38.305Z,0
2018-01-31T04:27:40.790Z,0
2018-01-31T04:28:43.286Z,0
2018-01-31T04:29:45.773Z,0
2018-01-31T04:30:48.546Z,0
2018-01-31T04:31:51.054Z,0
2018-01-31T04:32:53.544Z,0
2018-01-31T04:33:56.022Z,0
2018-01-31T04:34:58.516Z,0
2018-01-31T04:36:01.010Z,0
2018-01-31T04:37:03.502Z,0
2018-01-31T04:38:05.983Z,0
2018-01-31T04:39:08.474Z,0
2018-01-31T04:40:10.961Z,0
2018-01-31T04:41:13.445Z,0
2018-01-31T04:42:15.932Z,0
2018-01-31T04:43:18.432Z,0
2018-01-31T04:44:20.905Z,0
2018-01-31T04:45:23.416Z,0
2018-01-31T04:46:25.898Z,0
2018-01-31T04:47:28.675Z,0
2018-01-31T04:48:31.159Z,0
2018-01-31T04:49:33.653Z,0
2018-01-31T04:50:36.715Z,0
2018-01-31T04:51:39.274Z,0
2018-01-31T04:52:41.760Z,0
2018-01-31T04:53:44.252Z,0
2018-01-31T04:54:47.030Z,0
2018-01-31T04:55:49.520Z,0
2018-01-31T04:56:52.004Z,0
2018-01-31T04:57:54.512Z,0
2018-01-31T04:58:56.980Z,0
2018-01-31T04:59:59.475Z,0
2018-01-31T05:01:01.961Z,0
2018-01-31T05:02:04.449Z,0
2018-01-31T05:03:06.937Z,0
2018-01-31T05:04:09.426Z,0
2018-01-31T05:05:11.907Z,0
2018-01-31T05:06:14.401Z,0
2018-01-31T05:07:16.884Z,0
2018-01-31T05:08:19.374Z,0
2018-01-31T05:09:21.885Z,0
2018-01-31T05:10:24.372Z,0
2018-01-31T05:11:27.174Z,0
2018-01-31T05:12:29.662Z,0
2018-01-31T05:13:32.156Z,0
2018-01-31T05:14:34.643Z,0
2018-01-31T05:15:37.139Z,0
2018-01-31T05:16:39.909Z,0
2018-01-31T05:17:42.399Z,0
2018-01-31T05:18:44.896Z,0
2018-01-31T05:19:47.675Z,0
2018-01-31T05:20:50.169Z,0
2018-01-31T05:21:52.648Z,0
2018-01-31T05:22:55.426Z,0
2018-01-31T05:23:57.926Z,0
2018-01-31T05:25:00.414Z,0
2018-01-31T05:26:03.478Z,0
2018-01-31T05:27:05.967Z,0
2018-01-31T05:28:08.750Z,0
2018-01-31T05:29:11.237Z,0
2018-01-31T05:30:13.730Z,0
2018-01-31T05:31:16.200Z,0
2018-01-31T05:32:18.984Z,0
2018-01-31T05:33:21.780Z,0
2018-01-31T05:34:24.263Z,0
2018-01-31T05:35:26.758Z,0
2018-01-31T05:36:29.246Z,0
2018-01-31T05:37:32.022Z,0
2018-01-31T05:38:34.517Z,0
2018-01-31T05:39:37.004Z,0
2018-01-31T05:40:39.497Z,0
2018-01-31T05:41:41.993Z,0
2018-01-31T05:42:44.461Z,0
2018-01-31T05:43:46.964Z,0
2018-01-31T05:44:49.447Z,0
2018-01-31T05:45:51.940Z,0
2018-01-31T05:46:55.010Z,0
2018-01-31T05:47:57.503Z,0
2018-01-31T05:48:59.989Z,0
2018-01-31T05:50:02.495Z,0
2018-01-31T05:51:04.976Z,0
2018-01-31T05:52:07.762Z,0
2018-01-31T05:53:10.251Z,0
2018-01-31T05:54:12.737Z,0
2018-01-31T05:55:15.517Z,0
2018-01-31T05:56:18.005Z,0
2018-01-31T05:57:20.519Z,0
2018-01-31T05:58:23.026Z,0
2018-01-31T05:59:25.532Z,0
2018-01-31T06:00:28.328Z,0
2018-01-31T06:01:30.818Z,0
2018-01-31T06:02:33.316Z,0
2018-01-31T06:03:35.802Z,0
2018-01-31T06:04:38.309Z,0
2018-01-31T06:05:40.794Z,0
2018-01-31T06:06:43.275Z,0
2018-01-31T06:07:45.778Z,0
2018-01-31T06:08:48.266Z,0
2018-01-31T06:09:50.754Z,0
2018-01-31T06:10:53.535Z,0
2018-01-31T06:11:56.018Z,0
2018-01-31T06:12:58.505Z,0
2018-01-31T06:14:00.999Z,0
2018-01-31T06:15:03.769Z,0
2018-01-31T06:16:06.266Z,0
2018-01-31T06:17:08.753Z,0
2018-01-31T06:18:11.250Z,0
2018-01-31T06:19:13.734Z,0
2018-01-31T06:20:16.530Z,0
2018-01-31T06:21:19.007Z,0
2018-01-31T06:22:21.505Z,0
2018-01-31T06:23:23.993Z,0
2018-01-31T06:24:26.489Z,0
2018-01-31T06:25:28.976Z,0
2018-01-31T06:26:31.468Z,0
2018-01-31T06:27:33.960Z,0
2018-01-31T06:28:36.457Z,0
2018-01-31T06:29:38.948Z,0
2018-01-31T06:30:41.433Z,0
2018-01-31T06:31:43.922Z,0
2018-01-31T06:32:47.283Z,0
2018-01-31T06:33:49.776Z,0
2018-01-31T06:34:52.552Z,0
2018-01-31T06:35:55.036Z,0
2018-01-31T06:36:57.535Z,0
2018-01-31T06:38:00.311Z,0
2018-01-31T06:39:03.098Z,0
2018-01-31T06:40:05.609Z,0
2018-01-31T06:41:08.097Z,0
2018-01-31T06:42:10.859Z,0
2018-01-31T06:43:13.352Z,0
2018-01-31T06:44:15.840Z,0
2018-01-31T06:45:18.332Z,0
2018-01-31T06:46:20.825Z,0
2018-01-31T06:47:23.308Z,0
2018-01-31T06:48:25.798Z,0
2018-01-31T06:49:28.591Z,0
2018-01-31T06:50:31.072Z,0
2018-01-31T06:51:33.868Z,0
2018-01-31T06:52:36.412Z,0
2018-01-31T06:53:38.837Z,0
2018-01-31T06:54:41.335Z,0
2018-01-31T06:55:43.827Z,0
2018-01-31T06:56:46.306Z,0
2018-01-31T06:57:48.800Z,0
2018-01-31T06:58:51.294Z,0
2018-01-31T06:59:53.782Z,0
2018-01-31T07:00:56.283Z,0
2018-01-31T07:01:58.767Z,0
2018-01-31T07:03:01.263Z,0
2018-01-31T07:04:03.775Z,0
2018-01-31T07:05:06.253Z,1
2018-01-31T07:06:08.746Z,1
2018-01-31T07:07:11.238Z,1
2018-01-31T07:08:13.729Z,1
2018-01-31T07:09:16.222Z,1
2018-01-31T07:10:18.700Z,1
2018-01-31T07:11:21.197Z,1
2018-01-31T07:12:23.692Z,2
2018-01-31T07:13:26.164Z,2
2018-01-31T07:14:28.661Z,2
2018-01-31T07:15:31.147Z,2
2018-01-31T07:16:33.644Z,2
2018-01-31T07:17:36.143Z,2
2018-01-31T07:18:38.630Z,2
2018-01-31T07:19:41.121Z,2
2018-01-31T07:20:43.621Z,2
2018-01-31T07:21:46.114Z,2
2018-01-31T07:22:48.585Z,2
2018-01-31T07:23:51.081Z,2
2018-01-31T07:24:53.575Z,2
2018-01-31T07:25:56.357Z,2
2018-01-31T07:26:59.132Z,2
2018-01-31T07:28:01.932Z,3
2018-01-31T07:29:04.725Z,2
2018-01-31T07:30:07.511Z,2
2018-01-31T07:31:10.001Z,2
2018-01-31T07:32:12.477Z,2
2018-01-31T07:33:14.967Z,2
2018-01-31T07:34:17.745Z,3
2018-01-31T07:35:20.227Z,3
2018-01-31T07:36:22.719Z,3
2018-01-31T07:37:25.220Z,3
2018-01-31T07:38:28.297Z,3
2018-01-31T07:39:31.082Z,3
2018-01-31T07:40:33.575Z,3
2018-01-31T07:41:36.020Z,3
2018-01-31T07:42:38.445Z,3
2018-01-31T07:43:40.876Z,3
2018-01-31T07:44:43.288Z,3
2018-01-31T07:45:45.725Z,4
2018-01-31T07:46:48.158Z,4
2018-01-31T07:47:50.581Z,3
2018-01-31T07:48:53.014Z,3
2018-01-31T07:49:55.432Z,3
2018-01-31T07:50:58.140Z,2
2018-01-31T07:52:00.560Z,2
2018-01-31T07:53:02.998Z,2
2018-01-31T07:54:05.706Z,2
2018-01-31T07:55:08.410Z,1
2018-01-31T07:56:10.849Z,2
2018-01-31T07:57:13.275Z,2
2018-01-31T07:58:15.706Z,3
2018-01-31T07:59:18.124Z,3
2018-01-31T08:00:20.549Z,3
2018-01-31T08:01:22.969Z,5
2018-01-31T08:02:25.401Z,5
2018-01-31T08:03:27.818Z,4
2018-01-31T08:04:30.236Z,4
2018-01-31T08:05:32.665Z,5
2018-01-31T08:06:35.085Z,5
2018-01-31T08:07:37.507Z,7
2018-01-31T08:08:39.942Z,5
2018-01-31T08:09:42.367Z,5
2018-01-31T08:10:44.781Z,4
2018-01-31T08:11:47.223Z,4
2018-01-31T08:12:49.642Z,5
2018-01-31T08:13:52.348Z,5
2018-01-31T08:14:54.767Z,5
2018-01-31T08:15:57.194Z,5
2018-01-31T08:16:59.611Z,5
2018-01-31T08:18:02.054Z,5
2018-01-31T08:19:04.466Z,6
2018-01-31T08:20:07.191Z,6
2018-01-31T08:21:09.607Z,6
2018-01-31T08:22:12.320Z,6
2018-01-31T08:23:14.746Z,5
2018-01-31T08:24:17.178Z,5
2018-01-31T08:25:19.603Z,6
2018-01-31T08:26:22.029Z,5
2018-01-31T08:27:24.443Z,8
2018-01-31T08:28:27.164Z,7
2018-01-31T08:29:29.587Z,7
2018-01-31T08:30:32.297Z,6
2018-01-31T08:31:34.717Z,4
2018-01-31T08:32:37.428Z,5
2018-01-31T08:33:39.859Z,8
2018-01-31T08:34:42.869Z,9
2018-01-31T08:35:45.289Z,9
2018-01-31T08:36:47.722Z,8
2018-01-31T08:37:50.147Z,7
2018-01-31T08:38:52.564Z,7
2018-01-31T08:39:54.989Z,6
2018-01-31T08:40:57.422Z,8
2018-01-31T08:42:00.128Z,8
2018-01-31T08:43:02.560Z,8
2018-01-31T08:44:04.968Z,9
2018-01-31T08:45:07.678Z,10
2018-01-31T08:46:10.109Z,11
2018-01-31T08:47:12.530Z,9
2018-01-31T08:48:14.956Z,9
2018-01-31T08:49:17.388Z,9
2018-01-31T08:50:19.807Z,11
2018-01-31T08:51:22.242Z,7
2018-01-31T08:52:24.674Z,9
2018-01-31T08:53:27.084Z,13
2018-01-31T08:54:29.513Z,15
2018-01-31T08:55:31.946Z,14
2018-01-31T08:56:34.359Z,12
2018-01-31T08:57:36.792Z,7
2018-01-31T08:58:39.493Z,6
2018-01-31T08:59:41.914Z,7
2018-01-31T09:00:44.673Z,9
2018-01-31T09:01:47.074Z,10
2018-01-31T09:02:49.489Z,11
2018-01-31T09:03:51.926Z,10
2018-01-31T09:04:54.630Z,9
2018-01-31T09:05:57.058Z,7
2018-01-31T09:06:59.482Z,7
2018-01-31T09:08:01.907Z,7
2018-01-31T09:09:04.337Z,7
2018-01-31T09:10:06.765Z,9
2018-01-31T09:11:09.185Z,7
2018-01-31T09:12:11.897Z,7
2018-01-31T09:13:14.321Z,7
2018-01-31T09:14:16.744Z,7
2018-01-31T09:15:19.178Z,11
2018-01-31T09:16:21.602Z,12
2018-01-31T09:17:24.017Z,14
2018-01-31T09:18:26.453Z,11
2018-01-31T09:19:28.866Z,12
2018-01-31T09:20:31.298Z,12
2018-01-31T09:21:33.726Z,9
2018-01-31T09:22:36.154Z,8
2018-01-31T09:23:38.576Z,9
2018-01-31T09:24:41.005Z,10
2018-01-31T09:25:43.712Z,15
2018-01-31T09:26:46.152Z,12
2018-01-31T09:27:48.578Z,13
2018-01-31T09:28:50.993Z,13
2018-01-31T09:29:53.426Z,16
2018-01-31T09:30:55.853Z,13
2018-01-31T09:31:58.288Z,11
2018-01-31T09:33:00.704Z,11
2018-01-31T09:34:03.147Z,11
2018-01-31T09:35:05.568Z,11
2018-01-31T09:36:08.282Z,10
2018-01-31T09:37:10.706Z,12
2018-01-31T09:38:13.133Z,15
2018-01-31T09:39:15.562Z,13
2018-01-31T09:40:18.000Z,13
2018-01-31T09:41:20.418Z,14
2018-01-31T09:42:22.846Z,14
2018-01-31T09:43:25.287Z,12
2018-01-31T09:44:27.993Z,15
2018-01-31T09:45:30.417Z,16
2018-01-31T09:46:33.130Z,17
2018-01-31T09:47:35.556Z,16
2018-01-31T09:48:37.980Z,17
2018-01-31T09:49:40.412Z,16
2018-01-31T09:50:43.133Z,17
2018-01-31T09:51:45.558Z,17
2018-01-31T09:52:47.986Z,20
2018-01-31T09:53:50.409Z,21
2018-01-31T09:54:52.832Z,23
2018-01-31T09:55:55.268Z,26
2018-01-31T09:56:57.688Z,27
2018-01-31T09:58:00.115Z,29
2018-01-31T09:59:02.552Z,23
2018-01-31T10:00:04.967Z,18
2018-01-31T10:01:07.407Z,18
2018-01-31T10:02:10.110Z,19
2018-01-31T10:03:12.536Z,16
2018-01-31T10:04:14.959Z,15
2018-01-31T10:05:17.392Z,12
2018-01-31T10:06:19.828Z,12
2018-01-31T10:07:22.240Z,17
2018-01-31T10:08:24.976Z,24
2018-01-31T10:09:27.695Z,33
2018-01-31T10:10:30.697Z,38
2018-01-31T10:11:33.451Z,37
2018-01-31T10:12:35.847Z,40
2018-01-31T10:13:38.273Z,34
2018-01-31T10:14:40.990Z,31
2018-01-31T10:15:43.422Z,24
2018-01-31T10:16:45.840Z,29
2018-01-31T10:17:48.264Z,32
2018-01-31T10:18:50.690Z,28
2018-01-31T10:19:53.119Z,46
2018-01-31T10:20:55.551Z,38
2018-01-31T10:21:58.284Z,41
2018-01-31T10:23:00.985Z,36
2018-01-31T10:24:03.424Z,32
2018-01-31T10:25:05.846Z,30
2018-01-31T10:26:08.281Z,36
2018-01-31T10:27:10.714Z,29
2018-01-31T10:28:13.141Z,25
2018-01-31T10:29:15.568Z,34
2018-01-31T10:30:18.287Z,38
2018-01-31T10:31:20.996Z,36
2018-01-31T10:32:23.419Z,33
2018-01-31T10:33:25.857Z,34
2018-01-31T10:34:28.281Z,42
2018-01-31T10:35:31.004Z,36
2018-01-31T10:36:33.422Z,36
2018-01-31T10:37:35.854Z,33
2018-01-31T10:38:38.281Z,29
2018-01-31T10:39:40.723Z,33
2018-01-31T10:40:43.143Z,28
2018-01-31T10:41:45.582Z,26
2018-01-31T10:42:48.004Z,23
2018-01-31T10:43:50.433Z,20
2018-01-31T10:44:53.142Z,23
2018-01-31T10:45:55.575Z,22
2018-01-31T10:46:58.000Z,26
2018-01-31T10:48:00.715Z,34
2018-01-31T10:49:03.716Z,24
2018-01-31T10:50:06.168Z,24
2018-01-31T10:51:08.566Z,22
2018-01-31T10:52:11.007Z,17
2018-01-31T10:53:13.433Z,14
2018-01-31T10:57:30.936Z,15
2018-01-31T10:58:33.362Z,8
2018-01-31T10:59:35.794Z,11
2018-01-31T11:00:38.222Z,15
2018-01-31T11:01:40.658Z,17
2018-01-31T11:02:43.071Z,20
2018-01-31T11:03:45.509Z,23
2018-01-31T11:04:47.937Z,17
2018-01-31T11:05:50.374Z,14
2018-01-31T11:06:52.798Z,10
2018-01-31T11:07:55.228Z,11
2018-01-31T11:08:57.657Z,10
2018-01-31T11:10:00.077Z,11
2018-01-31T11:11:03.072Z,14
2018-01-31T11:12:05.799Z,18
2018-01-31T11:13:08.222Z,23
2018-01-31T11:14:10.935Z,28
2018-01-31T11:15:13.364Z,39
2018-01-31T11:16:15.794Z,37
2018-01-31T11:17:18.233Z,39
2018-01-31T11:18:20.668Z,33
2018-01-31T11:19:23.090Z,37
2018-01-31T11:20:25.527Z,32
2018-01-31T11:21:27.955Z,26
2018-01-31T11:22:30.386Z,31
2018-01-31T11:23:32.810Z,33
2018-01-31T11:24:35.234Z,41
2018-01-31T11:25:37.667Z,38
2018-01-31T11:26:40.441Z,40
2018-01-31T11:27:43.119Z,41
2018-01-31T11:28:45.836Z,35
2018-01-31T11:29:48.271Z,33
2018-01-31T11:30:50.973Z,32
2018-01-31T11:31:53.409Z,31
2018-01-31T11:32:55.838Z,33
2018-01-31T11:33:58.538Z,30
2018-01-31T11:35:00.968Z,29
2018-01-31T11:36:03.417Z,25
2018-01-31T11:37:05.840Z,28
2018-01-31T11:38:08.564Z,28
2018-01-31T11:39:10.994Z,22
2018-01-31T11:40:13.432Z,18
2018-01-31T11:41:15.864Z,20
2018-01-31T11:42:18.305Z,21
2018-01-31T11:43:20.724Z,19
2018-01-31T11:44:23.159Z,24
2018-01-31T11:45:25.595Z,30
2018-01-31T11:46:28.024Z,31
2018-01-31T11:47:30.455Z,31
2018-01-31T11:48:32.889Z,31
2018-01-31T11:49:35.320Z,32
2018-01-31T11:50:37.761Z,33
2018-01-31T11:51:40.193Z,35
2018-01-31T11:52:42.629Z,35
2018-01-31T11:53:45.061Z,35
2018-01-31T11:54:47.779Z,35
2018-01-31T11:55:50.209Z,35
2018-01-31T11:56:52.651Z,34
2018-01-31T11:57:55.065Z,34
2018-01-31T11:58:57.498Z,34
2018-01-31T11:59:59.935Z,33
2018-01-31T12:01:02.362Z,32
2018-01-31T12:02:04.796Z,33
2018-01-31T12:03:07.223Z,34
2018-01-31T12:04:09.654Z,32
2018-01-31T12:05:12.091Z,32
2018-01-31T12:06:14.517Z,32
2018-01-31T12:07:16.955Z,37
2018-01-31T12:08:19.382Z,38
2018-01-31T12:09:21.809Z,34
2018-01-31T12:10:24.242Z,33
2018-01-31T12:11:26.660Z,32
2018-01-31T12:12:29.095Z,30
2018-01-31T12:13:31.807Z,30
2018-01-31T12:14:34.527Z,30
2018-01-31T12:15:36.962Z,26
2018-01-31T12:16:39.387Z,24
2018-01-31T12:17:42.115Z,22
2018-01-31T12:18:44.541Z,23
2018-01-31T12:19:46.979Z,20
2018-01-31T12:20:49.689Z,16
2018-01-31T12:21:52.131Z,15
2018-01-31T12:22:54.560Z,11
2018-01-31T12:23:56.992Z,10
2018-01-31T12:24:59.695Z,11
2018-01-31T12:26:02.132Z,8
2018-01-31T12:27:04.842Z,6
2018-01-31T12:28:07.557Z,7
2018-01-31T12:29:09.989Z,6
2018-01-31T12:30:12.424Z,9
2018-01-31T12:31:14.861Z,10
2018-01-31T12:32:17.299Z,8
2018-01-31T12:33:19.723Z,6
2018-01-31T12:34:22.157Z,5
2018-01-31T12:35:24.599Z,5
2018-01-31T12:36:27.028Z,6
2018-01-31T12:37:29.457Z,6
2018-01-31T12:38:31.882Z,6
2018-01-31T12:39:34.323Z,7
2018-01-31T12:40:36.757Z,8
2018-01-31T12:41:39.193Z,8
2018-01-31T12:42:41.614Z,8
2018-01-31T12:43:44.334Z,7
2018-01-31T12:44:46.768Z,6
2018-01-31T12:45:49.194Z,7
2018-01-31T12:46:51.626Z,7
2018-01-31T12:47:54.053Z,8
2018-01-31T12:48:56.769Z,7
2018-01-31T12:49:59.499Z,7
2018-01-31T12:51:01.962Z,5
2018-01-31T12:52:04.389Z,3
2018-01-31T12:53:06.829Z,3
2018-01-31T12:54:09.262Z,10
2018-01-31T12:55:11.687Z,10
2018-01-31T12:56:14.410Z,8
2018-01-31T12:57:16.823Z,6
2018-01-31T12:58:19.260Z,7
2018-01-31T12:59:21.697Z,7
2018-01-31T13:00:24.126Z,9
2018-01-31T13:01:26.559Z,11
2018-01-31T13:02:28.982Z,11
2018-01-31T13:03:31.697Z,11
2018-01-31T13:04:34.134Z,11
2018-01-31T13:05:36.561Z,12
2018-01-31T13:06:39.000Z,11
2018-01-31T13:07:41.421Z,10
2018-01-31T13:08:43.865Z,9
2018-01-31T13:09:46.297Z,10
2018-01-31T13:10:48.726Z,11
2018-01-31T13:11:51.439Z,11
2018-01-31T13:12:53.864Z,10
2018-01-31T13:13:56.297Z,10
2018-01-31T13:14:58.735Z,10
2018-01-31T13:16:01.718Z,10
2018-01-31T13:17:04.154Z,10
2018-01-31T13:18:06.587Z,11
2018-01-31T13:19:09.019Z,11
2018-01-31T13:20:11.449Z,11
2018-01-31T13:21:13.875Z,12
2018-01-31T13:22:16.300Z,12
2018-01-31T13:23:18.741Z,12
2018-01-31T13:24:21.168Z,12
2018-01-31T13:25:23.909Z,12
2018-01-31T13:26:26.341Z,12
2018-01-31T13:27:28.767Z,12
2018-01-31T13:28:31.199Z,12
2018-01-31T13:29:33.634Z,12
2018-01-31T13:30:36.054Z,13
2018-01-31T13:31:38.487Z,14
2018-01-31T13:32:40.925Z,14
2018-01-31T13:33:43.638Z,13
2018-01-31T13:34:46.060Z,12
2018-01-31T13:35:48.496Z,12
2018-01-31T13:36:50.927Z,11
2018-01-31T13:37:53.638Z,10
2018-01-31T13:38:56.066Z,9
2018-01-31T13:39:58.503Z,8
2018-01-31T13:41:00.928Z,8
2018-01-31T13:42:03.349Z,7
2018-01-31T13:43:05.781Z,7
2018-01-31T13:44:08.494Z,7
2018-01-31T13:45:10.921Z,7
2018-01-31T13:46:13.358Z,7
2018-01-31T13:47:15.781Z,7
2018-01-31T13:48:18.230Z,8
2018-01-31T13:49:20.655Z,9
2018-01-31T13:50:23.086Z,8
2018-01-31T13:51:25.511Z,7
2018-01-31T13:52:27.942Z,9
2018-01-31T13:53:30.372Z,11
2018-01-31T13:54:32.841Z,11
2018-01-31T13:55:35.237Z,10
2018-01-31T13:56:37.670Z,9
2018-01-31T13:57:40.425Z,9
2018-01-31T13:58:42.848Z,9
2018-01-31T13:59:45.279Z,9
2018-01-31T14:00:47.712Z,10
2018-01-31T14:01:50.414Z,12
2018-01-31T14:02:53.124Z,11
2018-01-31T14:03:55.571Z,12
2018-01-31T14:04:58.274Z,12
2018-01-31T14:06:00.692Z,10
2018-01-31T14:07:03.126Z,10
2018-01-31T14:08:05.875Z,11
2018-01-31T14:09:08.585Z,14
2018-01-31T14:10:11.022Z,16
2018-01-31T14:11:13.452Z,18
2018-01-31T14:12:15.874Z,20
2018-01-31T14:13:18.320Z,20
2018-01-31T14:14:21.028Z,18
2018-01-31T14:15:23.451Z,16
2018-01-31T14:16:25.884Z,14
2018-01-31T14:17:28.313Z,13
2018-01-31T14:18:30.749Z,11
2018-01-31T14:19:33.459Z,13
2018-01-31T14:20:35.875Z,15
2018-01-31T14:21:38.595Z,16
2018-01-31T14:22:41.027Z,18
2018-01-31T14:23:43.454Z,17
2018-01-31T14:24:45.891Z,15
2018-01-31T14:25:48.600Z,15
2018-01-31T14:26:51.034Z,17
2018-01-31T14:27:53.469Z,18
2018-01-31T14:28:56.186Z,18
2018-01-31T14:29:58.602Z,16
2018-01-31T14:31:01.033Z,14
2018-01-31T14:32:03.468Z,14
2018-01-31T14:33:05.899Z,14
2018-01-31T14:34:08.331Z,15
2018-01-31T14:35:10.842Z,16
2018-01-31T14:36:13.305Z,15
2018-01-31T14:37:15.739Z,13
2018-01-31T14:38:19.364Z,12
2018-01-31T14:39:21.806Z,11
2018-01-31T14:40:24.226Z,11
2018-01-31T14:41:26.656Z,11
2018-01-31T14:42:29.094Z,12
2018-01-31T14:43:31.804Z,14
2018-01-31T14:44:34.239Z,15
2018-01-31T14:45:36.672Z,14
2018-01-31T14:46:39.388Z,14
2018-01-31T14:47:42.425Z,13
2018-01-31T14:48:45.167Z,12
2018-01-31T14:49:47.591Z,12
2018-01-31T14:50:50.301Z,11
2018-01-31T14:51:52.737Z,12
2018-01-31T14:52:55.440Z,11
2018-01-31T14:53:58.162Z,10
2018-01-31T14:55:00.581Z,6
2018-01-31T14:56:03.299Z,6
2018-01-31T14:57:05.731Z,4
2018-01-31T14:58:08.161Z,5
2018-01-31T14:59:10.594Z,5
2018-01-31T15:00:13.026Z,6
2018-01-31T15:01:15.485Z,6
2018-01-31T15:02:18.170Z,6
2018-01-31T15:03:20.618Z,6
2018-01-31T15:04:23.040Z,5
2018-01-31T15:05:25.475Z,7
2018-01-31T15:06:27.909Z,7
2018-01-31T15:07:30.341Z,6
2018-01-31T15:08:32.776Z,5
2018-01-31T15:09:35.209Z,5
2018-01-31T15:10:37.914Z,4
2018-01-31T15:11:40.348Z,4
2018-01-31T15:12:42.774Z,4
2018-01-31T15:13:45.506Z,4
2018-01-31T15:14:47.935Z,4
2018-01-31T15:15:50.372Z,4
2018-01-31T15:16:52.799Z,4
2018-01-31T15:17:55.226Z,3
2018-01-31T15:18:57.651Z,3
2018-01-31T15:20:00.393Z,3
2018-01-31T15:21:02.819Z,2
2018-01-31T15:22:05.255Z,3
2018-01-31T15:23:07.687Z,2
2018-01-31T15:24:10.125Z,2
2018-01-31T15:25:12.840Z,2
2018-01-31T15:26:15.278Z,2
2018-01-31T15:27:17.708Z,2
2018-01-31T15:28:20.140Z,2
2018-01-31T15:29:22.566Z,2
2018-01-31T15:30:24.995Z,2
2018-01-31T15:31:27.428Z,2
2018-01-31T15:32:30.147Z,2
2018-01-31T15:33:32.576Z,2
2018-01-31T15:34:35.015Z,2
2018-01-31T15:35:37.453Z,1
2018-01-31T15:36:39.868Z,1
2018-01-31T15:37:42.302Z,1
2018-01-31T15:38:44.745Z,1
2018-01-31T15:39:47.172Z,1
2018-01-31T15:40:49.609Z,0
2018-01-31T15:41:52.021Z,0
2018-01-31T15:42:54.444Z,0
2018-01-31T15:43:56.883Z,0
2018-01-31T15:44:59.314Z,0
2018-01-31T15:46:02.009Z,0
2018-01-31T15:47:04.450Z,0
2018-01-31T15:48:06.871Z,0
2018-01-31T15:49:09.303Z,0
2018-01-31T15:50:11.731Z,0
2018-01-31T15:51:14.158Z,0
2018-01-31T15:52:16.592Z,0
2018-01-31T15:53:19.319Z,0
2018-01-31T15:54:21.751Z,0
2018-01-31T15:55:24.182Z,0
2018-01-31T15:56:26.619Z,0
2018-01-31T15:57:29.050Z,0
2018-01-31T15:58:31.488Z,0
2018-01-31T15:59:34.206Z,0
2018-01-31T16:00:36.625Z,0
2018-01-31T16:01:39.051Z,0
2018-01-31T16:02:41.497Z,0
2018-01-31T16:03:43.925Z,0
2018-01-31T16:04:46.974Z,0
2018-01-31T16:05:49.398Z,0
2018-01-31T16:06:51.834Z,0
2018-01-31T16:07:54.258Z,0
2018-01-31T16:08:56.694Z,0
2018-01-31T16:09:59.119Z,0
2018-01-31T16:11:01.551Z,0
2018-01-31T16:12:04.280Z,0
2018-01-31T16:13:06.709Z,0
2018-01-31T16:14:09.151Z,0
2018-01-31T16:15:11.597Z,0
2018-01-31T16:16:14.054Z,0
2018-01-31T16:17:16.788Z,0
2018-01-31T16:18:19.214Z,0
2018-01-31T16:19:21.666Z,0
2018-01-31T16:20:24.107Z,0
2018-01-31T16:21:26.559Z,0
2018-01-31T16:22:28.989Z,0
2018-01-31T16:23:31.462Z,0
2018-01-31T16:24:33.885Z,0
2018-01-31T16:25:36.629Z,0
2018-01-31T16:26:39.372Z,0
2018-01-31T16:27:41.813Z,0
2018-01-31T16:28:44.284Z,0
2018-01-31T16:29:46.735Z,0
2018-01-31T16:30:49.195Z,0
2018-01-31T16:31:51.657Z,0
2018-01-31T16:32:54.088Z,0
2018-01-31T16:33:56.524Z,0
2018-01-31T16:34:58.950Z,0
2018-01-31T16:36:01.376Z,0
2018-01-31T16:37:03.802Z,0
2018-01-31T16:38:06.520Z,0
2018-01-31T16:39:08.959Z,0
2018-01-31T16:40:11.389Z,0
2018-01-31T16:41:13.820Z,0
2018-01-31T16:42:16.256Z,0
2018-01-31T16:43:18.962Z,0
2018-01-31T16:44:21.406Z,0
2018-01-31T16:45:23.823Z,0
2018-01-31T16:46:26.259Z,0
2018-01-31T16:47:28.731Z,0
2018-01-31T16:48:31.126Z,0
2018-01-31T16:49:33.549Z,0
2018-01-31T16:50:35.985Z,0
2018-01-31T16:51:38.742Z,0
2018-01-31T16:52:41.172Z,0
2018-01-31T16:53:43.602Z,0
2018-01-31T16:54:46.034Z,0
2018-01-31T16:55:48.752Z,0
2018-01-31T16:56:51.182Z,0
2018-01-31T16:57:53.617Z,0
2018-01-31T16:58:56.052Z,0
2018-01-31T16:59:58.475Z,0
2018-01-31T17:01:01.539Z,0
2018-01-31T17:02:04.244Z,0
2018-01-31T17:03:06.955Z,0
2018-01-31T17:04:09.388Z,0
2018-01-31T17:05:11.816Z,0
2018-01-31T17:06:14.240Z,0
2018-01-31T17:07:16.970Z,0
2018-01-31T17:08:19.393Z,0